createdAt,value
2022-09-09T00:00:17.983Z,19.90
2022-09-09T00:02:58.244Z,19.95
2022-09-09T00:05:51.279Z,20.07
2022-09-09T00:08:23.800Z,20.07
2022-09-09T00:10:59.973Z,20.06
2022-09-09T00:13:38.493Z,20.06
2022-09-09T00:16:26.374Z,20.03
2022-09-09T00:19:19.030Z,19.97
2022-09-09T00:22:21.129Z,19.99
2022-09-09T00:25:02.317Z,20.03
2022-09-09T00:27:38.273Z,20.01
2022-09-09T00:30:23.552Z,20.03
2022-09-09T00:32:58.867Z,19.98
2022-09-09T00:35:38.046Z,19.92
2022-09-09T00:38:16.732Z,19.90
2022-09-09T00:41:10.223Z,19.89
2022-09-09T00:43:41.475Z,19.86
2022-09-09T00:46:39.385Z,19.81
2022-09-09T00:49:35.355Z,19.78
2022-09-09T00:52:19.371Z,19.77
2022-09-09T00:55:08.642Z,19.73
2022-09-09T00:57:38.835Z,19.74
2022-09-09T01:00:30.949Z,19.76
2022-09-09T01:03:09.740Z,19.74
2022-09-09T01:05:43.358Z,19.69
2022-09-09T01:08:29.186Z,19.66
2022-09-09T01:11:00.342Z,19.69
2022-09-09T01:13:32.292Z,19.68
2022-09-09T01:16:09.077Z,19.66
2022-09-09T01:18:45.843Z,19.68
2022-09-09T01:21:45.617Z,19.67
2022-09-09T01:24:31.354Z,19.68
2022-09-09T01:27:08.789Z,19.69
2022-09-09T01:29:38.085Z,19.66
2022-09-09T01:32:45.061Z,19.60
2022-09-09T01:35:26.687Z,19.54
2022-09-09T01:37:54.925Z,19.55
2022-09-09T01:40:23.416Z,19.45
2022-09-09T01:42:52.998Z,19.30
2022-09-09T01:45:22.645Z,19.26
2022-09-09T01:47:54.707Z,19.34
2022-09-09T01:50:54.891Z,19.42
2022-09-09T01:53:24.813Z,19.47
2022-09-09T01:56:19.048Z,19.51
2022-09-09T01:59:09.710Z,19.57
2022-09-09T02:02:22.757Z,19.62
2022-09-09T02:05:18.694Z,19.68
2022-09-09T02:07:52.553Z,19.68
2022-09-09T02:10:58.160Z,19.68
2022-09-09T02:13:39.417Z,19.71
2022-09-09T02:16:20.355Z,19.64
2022-09-09T02:18:51.351Z,19.38
2022-09-09T02:21:25.001Z,19.33
2022-09-09T02:23:57.178Z,19.23
2022-09-09T02:26:26.528Z,19.15
2022-09-09T02:29:06.046Z,19.19
2022-09-09T02:31:36.825Z,19.17
2022-09-09T02:34:12.877Z,19.17
2022-09-09T02:36:44.779Z,19.20
2022-09-09T02:39:13.439Z,19.07
2022-09-09T02:41:43.746Z,19.16
2022-09-09T02:44:14.976Z,19.26
2022-09-09T02:47:01.702Z,19.17
2022-09-09T02:49:32.807Z,19.22
2022-09-09T02:52:08.758Z,19.26
2022-09-09T02:54:42.584Z,18.88
2022-09-09T02:57:19.263Z,18.86
2022-09-09T02:59:50.899Z,18.82
2022-09-09T03:02:19.814Z,18.80
2022-09-09T03:04:52.947Z,18.78
2022-09-09T03:07:22.771Z,18.81
2022-09-09T03:09:55.207Z,18.86
2022-09-09T03:12:26.554Z,18.73
2022-09-09T03:14:54.858Z,18.81
2022-09-09T03:17:23.179Z,18.88
2022-09-09T03:19:57.234Z,18.92
2022-09-09T03:22:26.362Z,18.93
2022-09-09T03:24:56.033Z,18.94
2022-09-09T03:27:24.605Z,18.99
2022-09-09T03:29:53.834Z,19.05
2022-09-09T03:32:27.165Z,19.08
2022-09-09T03:34:57.067Z,19.09
2022-09-09T03:37:25.920Z,19.11
2022-09-09T03:39:57.441Z,18.95
2022-09-09T03:42:25.968Z,18.71
2022-09-09T03:44:58.802Z,18.68
2022-09-09T03:47:27.327Z,18.61
2022-09-09T03:50:01.637Z,18.57
2022-09-09T03:52:31.727Z,18.54
2022-09-09T03:55:00.029Z,18.55
2022-09-09T03:57:28.174Z,18.58
2022-09-09T03:59:56.518Z,18.58
2022-09-09T04:02:25.427Z,18.58
2022-09-09T04:04:53.533Z,18.58
2022-09-09T04:07:22.487Z,18.56
2022-09-09T04:09:50.718Z,18.56
2022-09-09T04:12:19.134Z,18.55
2022-09-09T04:14:47.463Z,18.53
2022-09-09T04:17:15.732Z,18.53
2022-09-09T04:19:43.942Z,18.50
2022-09-09T04:22:12.529Z,18.48
2022-09-09T04:24:40.691Z,18.49
2022-09-09T04:27:09.333Z,18.53
2022-09-09T04:29:39.179Z,18.57
2022-09-09T04:32:07.649Z,18.66
2022-09-09T04:34:35.817Z,18.68
2022-09-09T04:37:04.079Z,18.73
2022-09-09T04:39:32.497Z,18.60
2022-09-09T04:42:03.015Z,18.67
2022-09-09T04:44:31.439Z,18.48
2022-09-09T04:47:01.015Z,18.44
2022-09-09T04:49:29.361Z,18.50
2022-09-09T04:51:57.452Z,18.57
2022-09-09T04:54:26.392Z,18.63
2022-09-09T04:56:54.795Z,18.71
2022-09-09T04:59:23.504Z,18.72
2022-09-09T05:01:58.457Z,18.81
2022-09-09T05:04:26.544Z,18.87
2022-09-09T05:06:54.810Z,18.90
2022-09-09T05:09:22.956Z,18.93
2022-09-09T05:11:52.388Z,18.96
2022-09-09T05:14:28.940Z,18.95
2022-09-09T05:16:57.207Z,18.97
2022-09-09T05:19:26.178Z,18.97
2022-09-09T05:21:55.454Z,18.91
2022-09-09T05:24:30.421Z,18.93
2022-09-09T05:27:02.663Z,19.01
2022-09-09T05:29:31.004Z,19.06
2022-09-09T05:32:02.194Z,19.06
2022-09-09T05:34:30.293Z,19.16
2022-09-09T05:36:59.342Z,19.25
2022-09-09T05:39:28.005Z,19.39
2022-09-09T05:41:56.577Z,19.48
2022-09-09T05:44:28.538Z,19.57
2022-09-09T05:46:56.918Z,19.68
2022-09-09T05:49:25.497Z,19.81
2022-09-09T05:51:53.995Z,19.79
2022-09-09T05:54:23.100Z,19.81
2022-09-09T05:56:54.640Z,19.96
2022-09-09T05:59:24.651Z,20.08
2022-09-09T06:01:55.372Z,20.21
2022-09-09T06:04:29.113Z,20.40
2022-09-09T06:06:57.162Z,20.55
2022-09-09T06:09:25.344Z,20.57
2022-09-09T06:11:53.595Z,20.62
2022-09-09T06:14:23.566Z,20.71
2022-09-09T06:16:53.635Z,20.69
2022-09-09T06:19:28.271Z,20.76
2022-09-09T06:22:02.258Z,20.88
2022-09-09T06:24:33.962Z,21.05
2022-09-09T06:27:03.897Z,21.26
2022-09-09T06:29:35.670Z,21.62
2022-09-09T06:32:05.859Z,22.05
2022-09-09T06:34:36.551Z,22.44
2022-09-09T06:37:05.619Z,22.88
2022-09-09T06:39:39.815Z,23.39
2022-09-09T06:42:09.886Z,23.92
2022-09-09T06:44:56.451Z,24.32
2022-09-09T06:47:44.937Z,24.48
2022-09-09T06:50:13.245Z,24.74
2022-09-09T06:52:41.503Z,24.91
2022-09-09T06:55:11.309Z,24.99
2022-09-09T06:57:39.984Z,25.21
2022-09-09T07:00:15.106Z,25.38
2022-09-09T07:02:43.519Z,25.37
2022-09-09T07:05:13.866Z,25.35
2022-09-09T07:07:48.616Z,25.59
2022-09-09T07:10:20.138Z,25.83
2022-09-09T07:12:53.947Z,26.06
2022-09-09T07:15:24.244Z,26.16
2022-09-09T07:17:54.081Z,26.35
2022-09-09T07:20:22.486Z,26.57
2022-09-09T07:22:51.458Z,26.83
2022-09-09T07:25:19.610Z,27.06
2022-09-09T07:27:48.417Z,27.33
2022-09-09T07:30:22.931Z,27.44
2022-09-09T07:32:54.365Z,27.60
2022-09-09T07:35:22.843Z,27.76
2022-09-09T07:37:51.317Z,27.84
2022-09-09T07:40:22.820Z,28.02
2022-09-09T07:42:51.484Z,27.67
2022-09-09T07:45:19.739Z,27.79
2022-09-09T07:47:49.861Z,28.52
2022-09-09T07:50:18.615Z,28.67
2022-09-09T07:52:46.851Z,28.51
2022-09-09T07:55:16.038Z,28.69
2022-09-09T07:57:44.439Z,29.07
2022-09-09T08:00:15.824Z,29.27
2022-09-09T08:02:48.037Z,29.37
2022-09-09T08:05:17.697Z,29.54
2022-09-09T08:07:46.891Z,29.08
2022-09-09T08:10:16.993Z,29.19
2022-09-09T08:13:01.531Z,28.85
2022-09-09T08:15:35.604Z,28.95
2022-09-09T08:18:05.377Z,29.15
2022-09-09T08:20:33.508Z,29.41
2022-09-09T08:23:03.135Z,29.61
2022-09-09T08:25:31.236Z,29.44
2022-09-09T08:27:59.987Z,29.67
2022-09-09T08:30:28.578Z,30.15
2022-09-09T08:32:56.809Z,30.60
2022-09-09T08:35:25.134Z,30.53
2022-09-09T08:37:56.147Z,30.44
2022-09-09T08:40:31.006Z,30.69
2022-09-09T08:43:03.939Z,30.59
2022-09-09T08:46:12.604Z,30.81
2022-09-09T08:48:53.361Z,31.67
2022-09-09T08:51:22.290Z,32.29
2022-09-09T08:53:59.049Z,33.20
2022-09-09T08:56:32.317Z,32.71
2022-09-09T08:59:05.329Z,32.62
2022-09-09T09:02:11.390Z,32.70
2022-09-09T09:04:53.059Z,32.98
2022-09-09T09:07:35.494Z,33.19
2022-09-09T09:10:42.106Z,32.39
2022-09-09T09:13:16.948Z,31.28
2022-09-09T09:15:54.116Z,31.11
2022-09-09T09:18:22.822Z,30.88
2022-09-09T09:21:07.208Z,30.48
2022-09-09T09:23:49.820Z,30.45
2022-09-09T09:26:19.044Z,29.86
2022-09-09T09:28:48.151Z,29.99
2022-09-09T09:31:21.078Z,29.47
2022-09-09T09:33:51.714Z,29.50
2022-09-09T09:36:26.781Z,29.96
2022-09-09T09:41:46.749Z,30.55
2022-09-09T09:44:31.046Z,30.09
2022-09-09T09:47:24.341Z,29.45
2022-09-09T09:50:21.750Z,28.96
2022-09-09T09:53:08.028Z,28.70
2022-09-09T09:55:54.799Z,28.09
2022-09-09T09:58:25.987Z,27.40
2022-09-09T10:00:55.400Z,26.33
2022-09-09T10:03:29.249Z,25.06
2022-09-09T10:05:59.118Z,23.79
2022-09-09T10:08:28.520Z,22.86
2022-09-09T10:11:02.186Z,22.12
2022-09-09T10:13:34.019Z,21.37
2022-09-09T10:16:17.190Z,20.38
2022-09-09T10:19:02.102Z,19.62
2022-09-09T10:21:35.699Z,19.35
2022-09-09T10:24:15.475Z,19.22
2022-09-09T10:26:46.556Z,19.16
2022-09-09T10:29:45.501Z,19.23
2022-09-09T10:32:52.218Z,19.28
2022-09-09T10:35:40.721Z,19.30
2022-09-09T10:38:22.129Z,19.30
2022-09-09T10:40:59.468Z,19.38
2022-09-09T10:44:00.140Z,19.39
2022-09-09T10:46:32.053Z,19.45
2022-09-09T10:49:23.031Z,19.55
2022-09-09T10:52:03.917Z,19.45
2022-09-09T10:54:32.050Z,19.46
2022-09-09T10:57:25.151Z,19.43
2022-09-09T11:00:00.794Z,19.56
2022-09-09T11:02:30.945Z,19.64
2022-09-09T11:05:07.920Z,19.79
2022-09-09T11:08:07.222Z,19.82
2022-09-09T11:10:46.542Z,19.80
2022-09-09T11:13:40.798Z,19.78
2022-09-09T11:16:11.582Z,20.00
2022-09-09T11:18:44.088Z,20.26
2022-09-09T11:21:25.748Z,20.36
2022-09-09T11:24:14.263Z,20.49
2022-09-09T11:26:59.700Z,20.66
2022-09-09T11:29:45.150Z,20.97
2022-09-09T11:32:28.112Z,21.58
2022-09-09T11:35:21.935Z,21.85
2022-09-09T11:37:59.114Z,22.11
2022-09-09T11:40:29.388Z,22.35
2022-09-09T11:43:24.847Z,22.71
2022-09-09T11:46:00.245Z,23.05
2022-09-09T11:48:46.722Z,23.30
2022-09-09T11:51:31.555Z,23.57
2022-09-09T11:54:02.300Z,23.98
2022-09-09T11:56:35.171Z,24.69
2022-09-09T11:59:20.301Z,24.86
2022-09-09T12:01:57.370Z,24.60
2022-09-09T12:04:26.489Z,24.84
2022-09-09T12:07:01.398Z,24.76
2022-09-09T12:09:57.608Z,24.84
2022-09-09T12:12:28.415Z,24.93
2022-09-09T12:15:08.456Z,25.07
2022-09-09T12:17:47.649Z,25.28
2022-09-09T12:20:20.562Z,25.77
2022-09-09T12:22:51.630Z,26.00
2022-09-09T12:25:55.587Z,25.76
2022-09-09T12:28:26.855Z,26.32
2022-09-09T12:31:11.258Z,26.27
2022-09-09T12:33:44.304Z,25.94
2022-09-09T12:36:24.288Z,26.22
2022-09-09T12:38:55.656Z,26.88
2022-09-09T12:41:26.188Z,27.38
2022-09-09T12:44:07.012Z,27.59
2022-09-09T12:46:42.692Z,27.55
2022-09-09T12:49:40.510Z,27.59
2022-09-09T12:52:16.347Z,28.03
2022-09-09T12:54:52.918Z,28.32
2022-09-09T12:57:25.715Z,28.66
2022-09-09T13:00:07.521Z,29.00
2022-09-09T13:02:35.937Z,28.92
2022-09-09T13:05:25.547Z,29.08
2022-09-09T13:08:03.397Z,29.10
2022-09-09T13:10:52.412Z,29.07
2022-09-09T13:13:28.091Z,29.44
2022-09-09T13:16:02.788Z,29.78
2022-09-09T13:18:36.535Z,29.70
2022-09-09T13:21:05.220Z,29.87
2022-09-09T13:23:36.274Z,29.91
2022-09-09T13:26:28.067Z,30.21
2022-09-09T13:29:08.144Z,30.67
2022-09-09T13:31:38.634Z,31.09
2022-09-09T13:34:28.805Z,31.23
2022-09-09T13:37:06.872Z,31.13
2022-09-09T13:39:38.975Z,31.34
2022-09-09T13:42:23.531Z,31.49
2022-09-09T13:44:51.823Z,31.07
2022-09-09T13:47:33.136Z,30.84
2022-09-09T13:50:27.245Z,30.87
2022-09-09T13:52:59.252Z,30.90
2022-09-09T13:55:29.558Z,30.62
2022-09-09T13:58:03.880Z,30.65
2022-09-09T14:00:34.511Z,30.10
2022-09-09T14:03:03.169Z,30.13
2022-09-09T14:05:34.820Z,29.55
2022-09-09T14:08:05.970Z,29.22
2022-09-09T14:10:36.835Z,29.31
2022-09-09T14:13:05.327Z,28.76
2022-09-09T14:15:33.427Z,28.64
2022-09-09T14:18:01.500Z,28.59
2022-09-09T14:20:29.634Z,28.20
2022-09-09T14:23:02.855Z,28.09
2022-09-09T14:25:32.317Z,27.78
2022-09-09T14:28:00.622Z,27.57
2022-09-09T14:30:28.832Z,27.37
2022-09-09T14:32:56.874Z,27.20
2022-09-09T14:35:25.645Z,27.12
2022-09-09T14:37:53.777Z,27.12
2022-09-09T14:40:22.535Z,27.07
2022-09-09T14:42:50.694Z,26.90
2022-09-09T14:45:18.746Z,26.67
2022-09-09T14:47:46.785Z,26.67
2022-09-09T14:50:15.162Z,26.59
2022-09-09T14:52:43.257Z,26.43
2022-09-09T14:55:12.174Z,26.15
2022-09-09T14:57:41.258Z,26.09
2022-09-09T15:00:12.223Z,26.01
2022-09-09T15:02:43.413Z,25.90
2022-09-09T15:05:11.901Z,25.83
2022-09-09T15:07:40.586Z,25.70
2022-09-09T15:10:12.137Z,25.66
2022-09-09T15:12:40.227Z,25.66
2022-09-09T15:15:08.669Z,25.71
2022-09-09T15:17:37.068Z,25.67
2022-09-09T15:20:06.860Z,25.55
2022-09-09T15:22:35.124Z,25.52
2022-09-09T15:25:03.485Z,25.60
2022-09-09T15:27:32.395Z,25.58
2022-09-09T15:30:01.895Z,25.51
2022-09-09T15:32:30.391Z,25.40
2022-09-09T15:34:58.539Z,25.37
2022-09-09T15:37:26.671Z,25.38
2022-09-09T15:39:54.844Z,25.42
2022-09-09T15:42:23.010Z,25.42
2022-09-09T15:44:51.094Z,25.44
2022-09-09T15:47:19.163Z,25.44
2022-09-09T15:49:47.208Z,25.39
2022-09-09T15:52:15.294Z,25.37
2022-09-09T15:54:44.097Z,25.36
2022-09-09T15:57:14.104Z,25.36
2022-09-09T15:59:42.319Z,25.36
2022-09-09T16:02:11.355Z,25.29
2022-09-09T16:04:39.605Z,25.24
2022-09-09T16:07:08.107Z,25.12
2022-09-09T16:09:37.258Z,25.08
2022-09-09T16:12:10.808Z,25.02
2022-09-09T16:14:39.856Z,25.00
2022-09-09T16:17:08.533Z,25.01
2022-09-09T16:19:36.826Z,24.96
2022-09-09T16:22:07.420Z,24.84
2022-09-09T16:24:35.548Z,24.77
2022-09-09T16:27:03.836Z,24.75
2022-09-09T16:29:33.109Z,24.74
2022-09-09T16:32:03.912Z,24.72
2022-09-09T16:34:34.573Z,24.70
2022-09-09T16:37:03.107Z,24.74
2022-09-09T16:39:31.707Z,24.69
2022-09-09T16:42:00.797Z,24.66
2022-09-09T16:44:28.958Z,24.60
2022-09-09T16:47:00.692Z,24.54
2022-09-09T16:49:32.125Z,24.52
2022-09-09T16:52:01.002Z,24.46
2022-09-09T16:54:30.035Z,24.42
2022-09-09T16:56:59.874Z,24.38
2022-09-09T16:59:28.055Z,24.32
2022-09-09T17:01:56.336Z,24.25
2022-09-09T17:04:27.534Z,24.20
2022-09-09T17:06:58.236Z,24.15
2022-09-09T17:09:30.219Z,24.08
2022-09-09T17:11:59.430Z,24.04
2022-09-09T17:14:27.797Z,23.94
2022-09-09T17:16:55.932Z,23.88
2022-09-09T17:19:23.963Z,23.83
2022-09-09T17:22:15.444Z,23.77
2022-09-09T17:24:41.355Z,23.63
2022-09-09T17:27:09.959Z,23.57
2022-09-09T17:29:38.570Z,23.48
2022-09-09T17:32:08.194Z,23.42
2022-09-09T17:34:37.222Z,23.40
2022-09-09T17:37:08.116Z,23.29
2022-09-09T17:39:36.716Z,23.24
2022-09-09T17:42:04.992Z,23.10
2022-09-09T17:44:33.373Z,22.95
2022-09-09T17:47:05.055Z,22.79
2022-09-09T17:49:33.305Z,22.66
2022-09-09T17:52:01.454Z,22.56
2022-09-09T17:54:29.567Z,22.41
2022-09-09T17:56:59.280Z,22.33
2022-09-09T17:59:27.472Z,22.24
2022-09-09T18:01:55.930Z,22.13
2022-09-09T18:04:24.135Z,22.05
2022-09-09T18:06:54.198Z,21.94
2022-09-09T18:09:25.655Z,21.87
2022-09-09T18:11:56.593Z,21.83
2022-09-09T18:14:31.188Z,21.73
2022-09-09T18:17:00.935Z,21.65
2022-09-09T18:19:30.887Z,21.58
2022-09-09T18:22:02.368Z,21.58
2022-09-09T18:24:31.127Z,21.53
2022-09-09T18:26:59.426Z,21.45
2022-09-09T18:29:27.828Z,21.39
2022-09-09T18:31:56.287Z,21.31
2022-09-09T18:34:28.837Z,21.24
2022-09-09T18:36:57.515Z,21.23
2022-09-09T18:39:28.391Z,21.23
2022-09-09T18:42:01.434Z,21.22
2022-09-09T18:44:35.306Z,21.16
2022-09-09T18:47:03.814Z,21.16
2022-09-09T18:49:33.269Z,21.10
2022-09-09T18:52:02.795Z,21.03
2022-09-09T18:54:33.343Z,20.96
2022-09-09T18:57:04.559Z,20.90
2022-09-09T18:59:32.696Z,20.85
2022-09-09T19:02:01.273Z,20.80
2022-09-09T19:04:31.714Z,20.77
2022-09-09T19:07:00.231Z,20.76
2022-09-09T19:09:31.687Z,20.78
2022-09-09T19:12:06.379Z,20.78
2022-09-09T19:14:34.715Z,20.76
2022-09-09T19:17:03.310Z,20.72
2022-09-09T19:19:33.213Z,20.70
2022-09-09T19:22:02.417Z,20.65
2022-09-09T19:24:32.882Z,20.64
2022-09-09T19:27:07.866Z,20.58
2022-09-09T19:29:39.518Z,20.55
2022-09-09T19:34:55.938Z,20.47
2022-09-09T19:37:24.139Z,20.42
2022-09-09T19:39:52.432Z,20.37
2022-09-09T19:42:20.918Z,20.33
2022-09-09T19:44:50.151Z,20.31
2022-09-09T19:47:19.478Z,20.31
2022-09-09T19:49:47.920Z,20.31
2022-09-09T19:52:17.484Z,20.31
2022-09-09T19:54:48.492Z,20.30
2022-09-09T19:57:16.625Z,20.28
2022-09-09T19:59:44.815Z,20.28
2022-09-09T20:02:15.725Z,20.28
2022-09-09T20:04:44.769Z,20.30
2022-09-09T20:07:13.296Z,20.22
2022-09-09T20:09:41.437Z,20.28
2022-09-09T20:12:11.312Z,20.23
2022-09-09T20:14:40.255Z,20.22
2022-09-09T20:17:10.075Z,20.20
2022-09-09T20:19:39.837Z,20.18
2022-09-09T20:22:08.159Z,20.24
2022-09-09T20:24:37.023Z,20.29
2022-09-09T20:27:07.016Z,20.29
2022-09-09T20:29:36.145Z,20.37
2022-09-09T20:32:05.876Z,20.44
2022-09-09T20:34:34.541Z,20.49
2022-09-09T20:37:02.821Z,20.54
2022-09-09T20:39:31.071Z,20.57
2022-09-09T20:41:59.110Z,20.62
2022-09-09T20:44:27.804Z,20.69
2022-09-09T20:47:00.484Z,20.76
2022-09-09T20:49:31.741Z,20.82
2022-09-09T20:51:59.834Z,20.92
2022-09-09T20:54:30.571Z,20.97
2022-09-09T20:57:00.386Z,21.01
2022-09-09T20:59:30.967Z,21.01
2022-09-09T21:02:01.040Z,21.00
2022-09-09T21:04:29.422Z,21.08
2022-09-09T21:06:58.841Z,21.13
2022-09-09T21:09:27.003Z,21.19
2022-09-09T21:11:55.197Z,21.28
2022-09-09T21:14:23.722Z,21.31
2022-09-09T21:16:51.813Z,21.37
2022-09-09T21:19:20.040Z,21.42
2022-09-09T21:21:49.088Z,21.46
2022-09-09T21:24:17.318Z,21.46
2022-09-09T21:26:49.429Z,21.50
2022-09-09T21:29:17.516Z,21.52
2022-09-09T21:31:45.608Z,21.61
2022-09-09T21:34:15.371Z,21.66
2022-09-09T21:36:43.566Z,21.65
2022-09-09T21:39:11.706Z,21.53
2022-09-09T21:41:40.174Z,21.13
2022-09-09T21:44:09.328Z,20.50
2022-09-09T21:46:37.543Z,20.04
2022-09-09T21:49:05.736Z,19.83
2022-09-09T21:51:33.895Z,19.69
2022-09-09T21:54:02.418Z,19.65
2022-09-09T21:56:30.511Z,19.62
2022-09-09T21:59:04.059Z,19.54
2022-09-09T22:01:35.694Z,19.43
2022-09-09T22:04:04.134Z,19.38
2022-09-09T22:06:33.403Z,19.39
2022-09-09T22:09:03.589Z,19.37
2022-09-09T22:11:31.800Z,19.34
2022-09-09T22:14:01.147Z,19.35
2022-09-09T22:16:29.422Z,19.34
2022-09-09T22:18:59.462Z,19.31
2022-09-09T22:21:29.855Z,19.31
2022-09-09T22:24:00.780Z,19.30
2022-09-09T22:26:32.815Z,19.30
2022-09-09T22:29:01.536Z,19.28
2022-09-09T22:31:29.710Z,19.26
2022-09-09T22:33:57.980Z,19.26
2022-09-09T22:36:26.521Z,19.24
2022-09-09T22:38:55.950Z,19.22
2022-09-09T22:41:25.091Z,19.15
2022-09-09T22:43:53.643Z,19.11
2022-09-09T22:46:23.718Z,19.03
2022-09-09T22:48:51.885Z,18.99
2022-09-09T22:51:19.913Z,18.93
2022-09-09T22:53:48.099Z,18.87
2022-09-09T22:56:18.723Z,18.83
2022-09-09T22:58:47.948Z,18.85
2022-09-09T23:01:19.270Z,18.85
2022-09-09T23:03:49.067Z,18.86
2022-09-09T23:06:22.835Z,18.84
2022-09-09T23:08:56.633Z,18.79
2022-09-09T23:11:31.089Z,18.77
2022-09-09T23:14:02.157Z,18.81
2022-09-09T23:16:38.380Z,18.88
2022-09-09T23:19:12.963Z,18.88
2022-09-09T23:21:42.030Z,18.87
2022-09-09T23:24:13.253Z,18.82
2022-09-09T23:26:43.442Z,18.82
2022-09-09T23:29:16.183Z,18.77
2022-09-09T23:31:46.010Z,18.78
2022-09-09T23:34:14.574Z,18.76
2022-09-09T23:36:43.026Z,18.71
2022-09-09T23:39:13.152Z,18.69
2022-09-09T23:41:41.562Z,18.67
2022-09-09T23:44:12.751Z,18.66
2022-09-09T23:46:41.033Z,18.66
2022-09-09T23:49:09.971Z,18.68
2022-09-09T23:51:38.363Z,18.71
2022-09-09T23:54:06.746Z,18.74
2022-09-09T23:56:37.983Z,18.82
2022-09-09T23:59:07.655Z,18.90
